Time;durP1;ratioP1;P1;durP2;ratioP2;P2;SDS_P1;SDS_P2;PMS_P1;PMS_P2;Temp;Humidity;BMP_temperature;BMP_pressure;BME280_temperature;BME280_humidity;BME280_pressure;Samples;Min_cycle;Max_cycle;Signal;HPM_P1;HPM_P2
2024/03/01 00:00:19;;;;;;;;;;;;;;;5.25;100.00;98587.19;4965343;28;19922;-83
2024/03/01 00:02:45;;;;;;;;;;;;;;;5.26;100.00;98583.66;4963205;28;19968;-83
2024/03/01 00:05:10;;;;;;;;;;;;;;;5.26;100.00;98581.03;4968727;28;19949;-92
2024/03/01 00:07:35;;;;;;;;;;;;;;;5.26;100.00;98581.03;4964882;28;19923;-95
2024/03/01 00:10:00;;;;;;;;;;;;;;;5.28;100.00;98579.19;4964887;28;20350;-93
2024/03/01 00:12:30;;;;;;;;;;;;;;;5.26;100.00;98591.53;4967870;28;20345;-90
2024/03/01 00:14:55;;;;;;;;;;;;;;;5.26;100.00;98591.53;4966405;28;19993;-92
2024/03/01 00:17:20;;;;;;;;;;;;;;;5.33;100.00;98586.00;4966799;28;20468;-92
2024/03/01 00:19:45;;;;;;;;;;;;;;;5.28;100.00;98584.44;4966881;28;19918;-93
2024/03/01 00:22:10;;;;;;;;;;;;;;;5.30;100.00;98596.63;4967173;28;20021;-91
2024/03/01 00:24:36;;;;;;;;;;;;;;;5.27;100.00;98595.84;4966982;28;19929;-91
2024/03/01 00:27:01;;;;;;;;;;;;;;;5.27;100.00;98595.84;4967014;28;19926;-86
2024/03/01 00:29:26;;;;;;;;;;;;;;;5.26;100.00;98607.31;4965181;28;19930;-88
2024/03/01 06:11:38;;;;;;;;;;;;;;;5.29;100.00;98577.41;5705462;23;19977;-83
2024/03/01 06:14:03;;;;;;;;;;;;;;;5.25;100.00;98574.06;4982072;28;19922;-88
2024/03/01 06:16:28;;;;;;;;;;;;;;;5.28;100.00;98581.81;4983723;28;19933;-83
2024/03/01 06:18:54;;;;;;;;;;;;;;;5.26;100.00;98581.03;4984055;28;19925;-89
2024/03/01 06:21:20;;;;;;;;;;;;;;;5.25;100.00;98587.19;4984082;28;19922;-84
2024/03/01 06:23:45;;;;;;;;;;;;;;;5.30;100.00;98586.13;4982114;28;19929;-81
2024/03/01 06:26:11;;;;;;;;;;;;;;;5.30;100.00;98594.88;4982214;28;20300;-87
2024/03/01 06:28:36;;;;;;;;;;;;;;;5.36;100.00;98588.50;4982411;28;19918;-86
2024/03/01 06:31:01;;;;;;;;;;;;;;;5.38;100.00;98595.44;4983513;28;19926;-82
2024/03/01 06:33:27;;;;;;;;;;;;;;;5.35;100.00;98599.97;4982780;28;19918;-92
2024/03/01 06:35:52;;;;;;;;;;;;;;;5.38;100.00;98605.09;4983523;28;20301;-86
2024/03/01 06:38:17;;;;;;;;;;;;;;;5.42;100.00;98598.78;4982570;28;19981;-89
2024/03/01 06:40:42;;;;;;;;;;;;;;;5.37;100.00;98600.75;4981745;28;19973;-95
2024/03/01 06:43:08;;;;;;;;;;;;;;;5.41;100.00;98604.97;4983438;28;19946;-85
2024/03/01 06:45:33;;;;;;;;;;;;;;;5.44;100.00;98620.56;4984347;28;19918;-85
2024/03/01 06:47:58;;;;;;;;;;;;;;;5.40;100.00;98616.38;4984671;28;20180;-87
2024/03/01 06:50:23;;;;;;;;;;;;;;;5.51;100.00;98629.94;4984126;28;19918;-89
2024/03/01 06:52:49;;;;;;;;;;;;;;;5.53;100.00;98646.50;4983232;28;19922;-86
2024/03/01 06:55:14;;;;;;;;;;;;;;;5.52;100.00;98644.81;4983631;28;19953;-91
2024/03/01 06:57:39;;;;;;;;;;;;;;;5.62;100.00;98650.53;4982043;28;19929;-86
2024/03/01 07:00:09;;;;;;;;;;;;;;;5.57;100.00;98663.00;4983909;28;19919;-88
2024/03/01 07:02:34;;;;;;;;;;;;;;;5.52;100.00;98668.44;4982882;28;19918;-93
2024/03/01 07:04:59;;;;;;;;;;;;;;;5.52;100.00;98673.69;4982241;28;19941;-82
2024/03/01 07:07:24;;;;;;;;;;;;;;;5.51;100.00;98674.59;4982113;28;19918;-85
2024/03/01 07:09:50;;;;;;;;;;;;;;;5.52;100.00;98671.06;4982610;28;19918;-84
2024/03/01 07:12:15;;;;;;;;;;;;;;;5.54;100.00;98668.38;4979639;28;19922;-81
2024/03/01 07:14:42;;;;;;;;;;;;;;;5.58;100.00;98676.06;4982630;28;19922;-82
2024/03/01 07:17:07;;;;;;;;;;;;;;;5.57;100.00;98678.78;4984425;28;19973;-82
2024/03/01 07:19:33;;;;;;;;;;;;;;;5.60;100.00;98683.88;4983675;28;19968;-80
2024/03/01 07:21:58;;;;;;;;;;;;;;;5.53;100.00;98683.28;4983591;28;19922;-80
2024/03/01 07:24:23;;;;;;;;;;;;;;;5.50;100.00;98685.19;4982715;28;19924;-81
2024/03/01 07:26:49;;;;;;;;;;;;;;;5.49;100.00;98689.59;4983223;28;19934;-85
2024/03/01 07:29:14;;;;;;;;;;;;;;;5.48;100.00;98677.34;4984225;28;19919;-83
2024/03/01 07:31:39;;;;;;;;;;;;;;;5.55;100.00;98688.47;4984431;28;19969;-86
2024/03/01 07:34:05;;;;;;;;;;;;;;;5.50;100.00;98687.81;4982707;28;20321;-84
2024/03/01 07:36:30;;;;;;;;;;;;;;;5.50;100.00;98685.19;4983229;28;19999;-82
2024/03/01 07:38:55;;;;;;;;;;;;;;;5.52;100.00;98696.47;4982442;28;20370;-84
2024/03/01 07:41:21;;;;;;;;;;;;;;;5.56;100.00;98684.94;4981256;28;19970;-82
2024/03/01 07:43:49;;;;;;;;;;;;;;;5.56;100.00;98687.56;4981993;28;20057;-88
2024/03/01 07:46:14;;;;;;;;;;;;;;;5.53;100.00;98688.53;4985086;28;20276;-81
2024/03/01 07:48:42;;;;;;;;;;;;;;;5.56;100.00;98688.41;4986619;28;19922;-86
2024/03/01 07:51:08;;;;;;;;;;;;;;;5.55;100.00;98694.59;4985937;28;19921;-80
2024/03/01 07:53:33;;;;;;;;;;;;;;;5.54;100.00;98698.13;4985901;28;19919;-87
2024/03/01 07:55:58;;;;;;;;;;;;;;;5.54;100.00;98695.50;4985093;28;19957;-86
2024/03/01 07:58:24;;;;;;;;;;;;;;;5.61;100.00;98691.72;4986228;28;20365;-83
2024/03/01 08:00:49;;;;;;;;;;;;;;;5.55;100.00;98686.72;4985892;28;19922;-79
2024/03/01 08:03:15;;;;;;;;;;;;;;;5.59;100.00;98700.59;4984713;28;19917;-85
2024/03/01 09:01:31;;;;;;;;;;;;;;;5.60;100.00;98721.56;4930963;29;20014;-80
2024/03/01 09:04:17;;;;;;;;;;;;;;;5.60;100.00;98711.03;4937861;29;20033;-89
2024/03/01 09:06:42;;;;;;;;;;;;;;;5.62;100.00;98716.22;4939004;29;20314;-80
2024/03/01 09:09:08;;;;;;;;;;;;;;;5.67;100.00;98708.16;4937564;29;19923;-80
2024/03/01 09:11:33;;;;;;;;;;;;;;;5.64;100.00;98707.34;4937311;29;20001;-86
2024/03/01 09:13:59;;;;;;;;;;;;;;;5.65;100.00;98718.75;4934211;29;20010;-82
2024/03/01 09:16:25;;;;;;;;;;;;;;;5.63;100.00;98718.81;4936139;29;19998;-81
2024/03/01 09:18:51;;;;;;;;;;;;;;;5.62;100.00;98724.97;4937630;29;19973;-83
2024/03/01 09:21:31;;;;;;;;;;;;;;;5.61;100.00;98723.25;4935840;29;20281;-82
2024/03/01 09:23:57;;;;;;;;;;;;;;;5.66;100.00;98716.97;4937371;29;19914;-83
2024/03/01 09:26:24;;;;;;;;;;;;;;;5.71;100.00;98712.38;4937309;29;19926;-83
2024/03/01 09:28:49;;;;;;;;;;;;;;;5.74;100.00;98714.88;4935648;29;19923;-82
2024/03/01 09:31:14;;;;;;;;;;;;;;;5.74;100.00;98717.50;4937060;29;20030;-82
2024/03/01 09:33:41;;;;;;;;;;;;;;;5.74;100.00;98712.25;4938310;29;19959;-83
2024/03/01 09:36:07;;;;;;;;;;;;;;;5.77;100.00;98725.28;4936900;29;20314;-80
2024/03/01 09:38:33;;;;;;;;;;;;;;;5.83;100.00;98718.00;4936765;29;19923;-78
2024/03/01 09:40:59;;;;;;;;;;;;;;;5.81;100.00;98718.97;4936382;29;19970;-83
2024/03/01 09:43:35;;;;;;;;;;;;;;;5.86;100.00;98731.94;4935750;29;19950;-89
2024/03/01 09:46:09;;;;;;;;;;;;;;;5.82;100.00;98728.56;4935878;29;20418;-82
2024/03/01 09:48:53;;;;;;;;;;;;;;;5.89;100.00;98722.16;4935962;29;20355;-81
2024/03/01 09:51:25;;;;;;;;;;;;;;;5.85;100.00;98707.41;4935735;29;19919;-84
2024/03/01 09:54:15;;;;;;;;;;;;;;;5.83;100.00;98704.84;4935444;29;19976;-85
2024/03/01 09:56:52;;;;;;;;;;;;;;;5.91;100.00;98712.41;4935340;29;20370;-82
2024/03/01 09:59:23;;;;;;;;;;;;;;;5.90;100.00;98702.81;4933834;29;19926;-83
2024/03/01 10:01:54;;;;;;;;;;;;;;;5.90;100.00;98713.31;4935410;29;19922;-85
2024/03/01 10:04:38;;;;;;;;;;;;;;;5.92;100.00;98697.50;4933469;29;19919;-86
2024/03/01 10:07:06;;;;;;;;;;;;;;;5.91;100.00;98699.28;4934265;29;19919;-87
2024/03/01 10:09:31;;;;;;;;;;;;;;;5.89;100.00;98706.38;4933588;29;19926;-83
2024/03/01 10:12:06;;;;;;;;;;;;;;;5.97;100.00;98698.22;4935406;29;19923;-83
2024/03/01 10:14:32;;;;;;;;;;;;;;;5.98;100.00;98700.78;4932729;29;19961;-82
2024/03/01 10:17:19;;;;;;;;;;;;;;;6.00;100.00;98698.94;4935420;29;19959;-83
2024/03/01 10:19:58;;;;;;;;;;;;;;;6.07;100.00;98709.19;4935195;29;19926;-84
2024/03/01 10:22:26;;;;;;;;;;;;;;;6.03;100.00;98707.59;4935327;29;19926;-82
2024/03/01 10:25:10;;;;;;;;;;;;;;;5.99;100.00;98707.72;4934612;29;19962;-86
2024/03/01 10:27:39;;;;;;;;;;;;;;;6.00;100.00;98706.81;4935041;29;19976;-87
2024/03/01 10:30:10;;;;;;;;;;;;;;;6.02;100.00;98711.19;4932654;29;19919;-84
2024/03/01 10:32:38;;;;;;;;;;;;;;;6.02;100.00;98704.13;4935284;29;19923;-86
2024/03/01 10:35:06;;;;;;;;;;;;;;;6.03;100.00;98707.59;4935085;29;19923;-85
2024/03/01 10:37:41;;;;;;;;;;;;;;;5.99;100.00;98705.09;4934583;29;20356;-86
2024/03/01 10:40:19;;;;;;;;;;;;;;;6.01;100.00;98710.28;4935129;29;19922;-84
2024/03/01 10:42:48;;;;;;;;;;;;;;;6.03;100.00;98702.34;4933296;29;20021;-85
2024/03/01 10:45:21;;;;;;;;;;;;;;;6.02;100.00;98705.91;4932973;29;19925;-85
2024/03/01 10:47:48;;;;;;;;;;;;;;;5.97;100.00;98704.31;4934555;29;19927;-86
2024/03/01 10:50:13;;;;;;;;;;;;;;;5.98;100.00;98698.16;4934241;29;19919;-82
2024/03/01 10:52:44;;;;;;;;;;;;;;;5.96;100.00;98697.34;4934946;29;19974;-84
2024/03/01 10:55:21;;;;;;;;;;;;;;;5.99;100.00;98699.00;4935006;29;19961;-85
2024/03/01 10:58:06;;;;;;;;;;;;;;;5.99;100.00;98702.47;4934799;29;19962;-90
2024/03/01 11:00:35;;;;;;;;;;;;;;;6.02;100.00;98698.03;4932677;29;19930;-83
2024/03/01 11:03:03;;;;;;;;;;;;;;;5.97;100.00;98699.06;4933575;29;20366;-84
2024/03/01 11:05:35;;;;;;;;;;;;;;;5.99;100.00;98691.94;4934647;29;20025;-87
2024/03/01 11:08:20;;;;;;;;;;;;;;;6.04;100.00;98694.41;4933381;29;19930;-83
2024/03/01 11:10:57;;;;;;;;;;;;;;;6.11;100.00;98692.34;4934027;29;20267;-84
2024/03/01 11:13:27;;;;;;;;;;;;;;;6.10;100.00;98688.03;4933428;29;19919;-87
2024/03/01 11:15:54;;;;;;;;;;;;;;;6.12;100.00;98691.44;4934860;29;19918;-88
2024/03/01 11:18:20;;;;;;;;;;;;;;;6.15;100.00;98686.06;4934878;29;19919;-85
2024/03/01 11:21:02;;;;;;;;;;;;;;;6.12;100.00;98688.81;4936075;29;19974;-87
2024/03/01 11:23:33;;;;;;;;;;;;;;;6.10;100.00;98698.56;4939526;29;19922;-88
2024/03/01 11:26:01;;;;;;;;;;;;;;;6.17;100.00;98690.34;4938473;29;19938;-86
2024/03/01 11:28:29;;;;;;;;;;;;;;;6.17;100.00;98678.94;4937797;29;19926;-82
2024/03/01 11:30:58;;;;;;;;;;;;;;;6.14;100.00;98679.97;4938745;29;19919;-86
2024/03/01 11:33:24;;;;;;;;;;;;;;;6.13;100.00;98678.22;4938985;29;19919;-91
2024/03/01 11:35:56;;;;;;;;;;;;;;;6.13;100.00;98686.13;4940085;29;20490;-91
2024/03/01 11:38:35;;;;;;;;;;;;;;;6.16;100.00;98669.38;4938268;29;19941;-88
2024/03/01 11:41:19;;;;;;;;;;;;;;;6.24;100.00;98667.25;4938341;29;19970;-88
2024/03/01 11:44:03;;;;;;;;;;;;;;;6.25;100.00;98658.44;4935710;29;19923;-88
2024/03/01 11:46:41;;;;;;;;;;;;;;;6.19;100.00;98656.09;4937035;29;19922;-92
2024/03/01 11:49:13;;;;;;;;;;;;;;;6.21;100.00;98654.25;4939244;29;19925;-89
2024/03/01 11:51:46;;;;;;;;;;;;;;;6.23;100.00;98657.66;4939145;29;19965;-85
2024/03/01 11:54:36;;;;;;;;;;;;;;;6.29;100.00;98646.88;4938617;29;20490;-82
2024/03/01 11:57:23;;;;;;;;;;;;;;;6.25;100.00;98640.00;4939758;29;19915;-93
2024/03/01 12:00:04;;;;;;;;;;;;;;;6.19;100.00;98635.03;4937274;29;19929;-84
2024/03/01 12:02:36;;;;;;;;;;;;;;;6.17;100.00;98631.59;4938746;29;19931;-88
2024/03/01 12:05:21;;;;;;;;;;;;;;;6.16;100.00;98630.75;4941532;29;20009;-88
2024/03/01 12:08:06;;;;;;;;;;;;;;;6.19;100.00;98624.53;4938707;29;20013;-88
2024/03/01 12:10:51;;;;;;;;;;;;;;;6.18;100.00;98628.91;4945388;29;19942;-84
2024/03/01 12:13:16;;;;;;;;;;;;;;;6.19;100.00;98619.25;4942995;29;19919;-89
2024/03/01 12:15:52;;;;;;;;;;;;;;;6.21;100.00;98617.41;4947285;29;20664;-84
2024/03/01 12:18:47;;;;;;;;;;;;;;;6.20;100.00;98620.94;4945838;29;19926;-86
2024/03/01 12:21:30;;;;;;;;;;;;;;;6.18;100.00;98610.50;4930608;29;19935;-88
2024/03/01 12:24:31;;;;;;;;;;;;;;;6.21;100.00;98611.28;4939004;29;19919;-83
2024/03/01 12:27:17;;;;;;;;;;;;;;;6.17;100.00;98614.06;4860450;29;19920;-85
2024/03/01 12:30:01;;;;;;;;;;;;;;;6.24;100.00;98612.03;4944017;29;19941;-91
2024/03/01 12:32:37;;;;;;;;;;;;;;;6.30;100.00;98611.75;4936627;29;19918;-84
2024/03/01 12:35:21;;;;;;;;;;;;;;;6.20;100.00;98602.53;4938072;29;20454;-83
2024/03/01 12:38:05;;;;;;;;;;;;;;;6.24;100.00;98604.13;4937510;29;20367;-84
2024/03/01 12:40:46;;;;;;;;;;;;;;;6.25;100.00;98597.91;4938075;29;19919;-94
2024/03/01 12:43:11;;;;;;;;;;;;;;;6.22;100.00;98600.69;4943978;29;19923;-83
2024/03/01 12:45:55;;;;;;;;;;;;;;;6.23;100.00;98580.53;4936452;29;20267;-87
2024/03/01 12:48:32;;;;;;;;;;;;;;;6.22;100.00;98586.69;4937945;29;19923;-84
2024/03/01 12:51:16;;;;;;;;;;;;;;;6.22;100.00;98584.06;4938341;29;19919;-87
2024/03/01 12:53:56;;;;;;;;;;;;;;;6.23;100.00;98593.66;4937597;29;20377;-92
2024/03/01 12:56:40;;;;;;;;;;;;;;;6.25;100.00;98590.03;4937479;29;19918;-85
2024/03/01 12:59:24;;;;;;;;;;;;;;;6.26;100.00;98589.13;4935705;29;19941;-85
2024/03/01 13:02:08;;;;;;;;;;;;;;;6.27;100.00;98588.22;4937004;29;20000;-86
2024/03/01 13:04:42;;;;;;;;;;;;;;;6.23;100.00;98578.72;4935560;29;20009;-85
2024/03/01 13:07:07;;;;;;;;;;;;;;;6.25;100.00;98582.13;4936407;29;20353;-88
2024/03/01 13:09:39;;;;;;;;;;;;;;;6.25;100.00;98579.50;4936041;29;19919;-88
2024/03/01 13:12:07;;;;;;;;;;;;;;;6.33;100.00;98564.25;4934932;29;19919;-88
2024/03/01 13:14:47;;;;;;;;;;;;;;;6.30;100.00;98574.91;4935127;29;19919;-90
2024/03/01 13:17:13;;;;;;;;;;;;;;;6.35;100.00;98567.66;4936914;29;19938;-86
2024/03/01 13:19:41;;;;;;;;;;;;;;;6.31;100.00;98560.81;4936618;29;20294;-87
2024/03/01 13:22:11;;;;;;;;;;;;;;;6.32;100.00;98562.53;4935232;29;19926;-90
2024/03/01 13:24:45;;;;;;;;;;;;;;;6.36;100.00;98564.09;4936092;29;19922;-89
2024/03/01 13:27:17;;;;;;;;;;;;;;;6.34;100.00;98554.59;4937250;29;19941;-86
2024/03/01 13:29:43;;;;;;;;;;;;;;;6.38;100.00;98558.75;4935105;29;20321;-83
2024/03/01 13:32:17;;;;;;;;;;;;;;;6.38;100.00;98557.91;4943223;29;19927;-84
2024/03/01 13:34:48;;;;;;;;;;;;;;;6.34;100.00;98554.59;4936161;29;19919;-89
2024/03/01 13:37:15;;;;;;;;;;;;;;;6.35;100.00;98553.63;4937570;29;19919;-89
2024/03/01 13:39:45;;;;;;;;;;;;;;;6.36;100.00;98548.31;4942954;29;19922;-90
2024/03/01 13:42:18;;;;;;;;;;;;;;;6.48;100.00;98540.81;4936178;29;20441;-81
2024/03/01 13:44:45;;;;;;;;;;;;;;;6.41;100.00;98545.47;4941238;28;20297;-85
2024/03/01 13:47:17;;;;;;;;;;;;;;;6.41;100.00;98539.38;4935864;29;20565;-82
2024/03/01 13:49:49;;;;;;;;;;;;;;;6.37;100.00;98536.03;4935107;29;20199;-84
2024/03/01 13:52:14;;;;;;;;;;;;;;;6.36;100.00;98529.03;4934824;29;19919;-83
2024/03/01 13:54:40;;;;;;;;;;;;;;;6.31;100.00;98536.31;4935824;29;19923;-87
2024/03/01 13:57:06;;;;;;;;;;;;;;;6.35;100.00;98533.47;4935983;29;19925;-85
2024/03/01 13:59:31;;;;;;;;;;;;;;;6.39;100.00;98523.66;4933144;29;19929;-86
2024/03/01 14:01:59;;;;;;;;;;;;;;;6.37;100.00;98522.88;4934942;29;20307;-85
2024/03/01 14:04:25;;;;;;;;;;;;;;;6.41;100.00;98523.56;4935753;29;19929;-82
2024/03/01 14:06:51;;;;;;;;;;;;;;;6.39;100.00;98514.91;4935661;29;20358;-81
2024/03/01 14:09:18;;;;;;;;;;;;;;;6.44;100.00;98516.38;4935554;29;20351;-85
2024/03/01 14:11:43;;;;;;;;;;;;;;;6.42;100.00;98504.25;4935451;29;19982;-83
2024/03/01 14:14:08;;;;;;;;;;;;;;;6.38;100.00;98507.94;4934339;29;20374;-83
2024/03/01 14:16:34;;;;;;;;;;;;;;;6.35;100.00;98504.53;4935735;29;19988;-83
2024/03/01 14:19:00;;;;;;;;;;;;;;;6.36;100.00;98510.63;4935517;29;19978;-88
2024/03/01 14:21:28;;;;;;;;;;;;;;;6.35;100.00;98503.66;4935565;29;19919;-85
2024/03/01 14:23:53;;;;;;;;;;;;;;;6.34;100.00;98505.44;4935708;29;19922;-88
2024/03/01 14:26:18;;;;;;;;;;;;;;;6.37;100.00;98504.47;4934764;29;19926;-81
2024/03/01 14:28:45;;;;;;;;;;;;;;;6.47;100.00;98497.81;4934010;29;19977;-85
2024/03/01 14:31:10;;;;;;;;;;;;;;;6.52;100.00;98489.72;4935959;29;19975;-84
2024/03/01 14:33:35;;;;;;;;;;;;;;;6.50;100.00;98486.31;4935536;29;19950;-84
2024/03/01 14:36:05;;;;;;;;;;;;;;;6.48;100.00;98485.53;4936112;29;19989;-88
2024/03/01 14:38:30;;;;;;;;;;;;;;;6.48;100.00;98488.19;4935788;29;19923;-90
2024/03/01 14:40:56;;;;;;;;;;;;;;;6.52;100.00;98489.72;4935776;29;20359;-92
2024/03/01 14:43:22;;;;;;;;;;;;;;;6.57;100.00;98482.47;4936803;29;19947;-85
2024/03/01 14:45:51;;;;;;;;;;;;;;;6.52;100.00;98481.81;4935988;29;19922;-84
2024/03/01 14:48:23;;;;;;;;;;;;;;;6.53;100.00;98481.75;4940642;29;19919;-87
2024/03/01 14:50:56;;;;;;;;;;;;;;;6.53;100.00;98473.03;4939608;29;19915;-82
2024/03/01 14:53:38;;;;;;;;;;;;;;;6.52;100.00;98472.16;4934420;29;19942;-86
2024/03/01 14:56:06;;;;;;;;;;;;;;;6.48;100.00;98480.28;4934524;29;19918;-86
2024/03/01 14:58:32;;;;;;;;;;;;;;;6.45;100.00;98476.00;4933750;29;19922;-85
2024/03/01 15:00:57;;;;;;;;;;;;;;;6.45;100.00;98476.00;4934586;29;19982;-87
2024/03/01 15:03:25;;;;;;;;;;;;;;;6.46;100.00;98471.59;4950787;29;19923;-90
2024/03/01 15:05:51;;;;;;;;;;;;;;;6.42;100.00;98462.16;4937743;29;19929;-91
2024/03/01 15:08:18;;;;;;;;;;;;;;;6.43;100.00;98474.34;4936387;29;20029;-92
2024/03/01 15:10:43;;;;;;;;;;;;;;;6.53;100.00;98462.50;4952080;29;20295;-91
2024/03/01 15:13:09;;;;;;;;;;;;;;;6.59;100.00;98461.31;4937504;29;19919;-94
2024/03/01 15:15:43;;;;;;;;;;;;;;;6.53;100.00;98457.22;4936540;29;19923;-91
2024/03/01 15:18:09;;;;;;;;;;;;;;;6.46;100.00;98450.53;4934945;29;19919;-90
2024/03/01 15:20:39;;;;;;;;;;;;;;;6.44;100.00;98449.75;4935912;29;19930;-93
2024/03/01 15:23:05;;;;;;;;;;;;;;;6.46;100.00;98453.16;4937635;29;19922;-93
2024/03/01 15:25:31;;;;;;;;;;;;;;;6.44;100.00;98452.41;4936947;29;19918;-90
2024/03/01 15:27:56;;;;;;;;;;;;;;;6.43;100.00;98458.56;4938011;29;19922;-89
2024/03/01 15:30:21;;;;;;;;;;;;;;;6.45;100.00;98454.09;4934400;29;19962;-88
2024/03/01 15:32:47;;;;;;;;;;;;;;;6.46;100.00;98442.63;4935138;29;19922;-84
2024/03/01 15:35:12;;;;;;;;;;;;;;;6.42;100.00;98441.09;4933990;29;20013;-86
2024/03/01 15:37:38;;;;;;;;;;;;;;;6.39;100.00;98433.34;4935733;29;19919;-88
2024/03/01 15:40:06;;;;;;;;;;;;;;;6.40;100.00;98432.41;4935207;29;19919;-81
2024/03/01 15:42:31;;;;;;;;;;;;;;;6.40;100.00;98427.13;4934493;29;20014;-84
2024/03/01 15:44:56;;;;;;;;;;;;;;;6.42;100.00;98435.84;4932375;29;20001;-83
2024/03/01 15:47:21;;;;;;;;;;;;;;;6.44;100.00;98429.56;4935345;29;19972;-90
2024/03/01 15:49:46;;;;;;;;;;;;;;;6.44;100.00;98420.81;4936561;29;19922;-82
2024/03/01 15:52:12;;;;;;;;;;;;;;;6.44;100.00;98419.03;4935381;29;19966;-90
2024/03/01 15:54:37;;;;;;;;;;;;;;;6.45;100.00;98417.28;4933779;29;19930;-83
2024/03/01 15:57:02;;;;;;;;;;;;;;;6.44;100.00;98413.75;4934076;29;19919;-86
2024/03/01 15:59:28;;;;;;;;;;;;;;;6.43;100.00;98419.97;4934806;29;20046;-87
2024/03/01 16:01:53;;;;;;;;;;;;;;;6.42;100.00;98420.03;4933883;29;20013;-87
2024/03/01 16:04:20;;;;;;;;;;;;;;;6.43;100.00;98416.47;4934571;29;19926;-84
2024/03/01 16:06:46;;;;;;;;;;;;;;;6.44;100.00;98420.81;4936557;29;20331;-90
2024/03/01 16:09:11;;;;;;;;;;;;;;;6.38;100.00;98418.47;4952908;29;19967;-89
2024/03/01 16:11:40;;;;;;;;;;;;;;;6.38;100.00;98421.09;4942430;29;19918;-92
2024/03/01 16:14:08;;;;;;;;;;;;;;;6.39;100.00;98425.44;4940471;29;19919;-94
2024/03/01 16:16:35;;;;;;;;;;;;;;;6.39;100.00;98425.44;4938126;29;20394;-95
2024/03/01 16:19:00;;;;;;;;;;;;;;;6.40;100.00;98427.13;4941924;29;19970;-88
2024/03/01 16:21:25;;;;;;;;;;;;;;;6.40;100.00;98416.63;4937621;29;19965;-90
2024/03/01 16:23:50;;;;;;;;;;;;;;;6.40;100.00;98412.22;4937347;29;19919;-90
2024/03/01 16:26:16;;;;;;;;;;;;;;;6.39;100.00;98404.41;4949677;29;19918;-84
2024/03/01 16:28:43;;;;;;;;;;;;;;;6.34;100.00;98405.47;4937028;29;19918;-90
2024/03/01 16:31:08;;;;;;;;;;;;;;;6.38;100.00;98407.94;4937877;29;20240;-84
2024/03/01 16:33:34;;;;;;;;;;;;;;;6.39;100.00;98409.66;4938510;29;19926;-89
2024/03/01 16:36:04;;;;;;;;;;;;;;;6.40;100.00;98413.97;4940026;29;20402;-86
2024/03/01 16:38:39;;;;;;;;;;;;;;;6.38;100.00;98406.16;4941362;29;19942;-84
2024/03/01 16:41:19;;;;;;;;;;;;;;;6.33;100.00;98405.53;4943352;29;19926;-81
2024/03/01 16:43:44;;;;;;;;;;;;;;;6.33;100.00;98405.53;4938983;29;19918;-83
2024/03/01 16:46:28;;;;;;;;;;;;;;;6.33;100.00;98400.28;4937599;29;19941;-82
2024/03/01 16:48:54;;;;;;;;;;;;;;;6.34;100.00;98407.25;4938311;29;20378;-87
2024/03/01 16:51:33;;;;;;;;;;;;;;;6.34;100.00;98400.19;4937572;29;19919;-88
2024/03/01 16:53:59;;;;;;;;;;;;;;;6.33;100.00;98398.50;4938506;29;19987;-85
2024/03/01 16:56:25;;;;;;;;;;;;;;;6.32;100.00;98394.16;4939137;29;19919;-85
2024/03/01 16:58:52;;;;;;;;;;;;;;;6.32;100.00;98394.16;4935228;29;20370;-89
2024/03/01 17:01:29;;;;;;;;;;;;;;;6.35;100.00;98399.28;4939212;29;20388;-88
2024/03/01 17:03:54;;;;;;;;;;;;;;;6.35;100.00;98399.28;4935123;29;19919;-89
2024/03/01 17:06:19;;;;;;;;;;;;;;;6.34;100.00;98394.94;4937027;29;19930;-86
2024/03/01 17:08:46;;;;;;;;;;;;;;;6.35;100.00;98399.28;4936876;29;20442;-87
2024/03/01 17:11:12;;;;;;;;;;;;;;;6.34;100.00;98399.34;4935941;29;19961;-89
2024/03/01 17:13:37;;;;;;;;;;;;;;;6.36;100.00;98398.34;4935912;29;19954;-82
2024/03/01 17:16:07;;;;;;;;;;;;;;;6.36;100.00;98402.75;4939905;29;19930;-89
2024/03/01 17:18:32;;;;;;;;;;;;;;;6.39;100.00;98399.16;4937930;29;20508;-91
2024/03/01 17:20:58;;;;;;;;;;;;;;;6.41;100.00;98411.28;4937409;29;19954;-84
2024/03/01 17:23:23;;;;;;;;;;;;;;;6.39;100.00;98404.41;4935898;29;19930;-82
2024/03/01 17:25:49;;;;;;;;;;;;;;;6.38;100.00;98403.53;4936336;29;19919;-83
2024/03/01 17:28:14;;;;;;;;;;;;;;;6.34;100.00;98400.19;4937129;29;19923;-85
2024/03/01 17:30:39;;;;;;;;;;;;;;;6.40;100.00;98395.56;4940971;29;19978;-87
2024/03/01 17:33:06;;;;;;;;;;;;;;;6.38;100.00;98403.53;4936575;29;19932;-88
2024/03/01 17:35:31;;;;;;;;;;;;;;;6.36;100.00;98400.97;4937170;29;19926;-91
2024/03/01 17:37:57;;;;;;;;;;;;;;;6.31;100.00;98400.34;4953297;29;19923;-87
2024/03/01 17:40:22;;;;;;;;;;;;;;;6.32;100.00;98396.81;4935367;29;19925;-86
2024/03/01 17:42:48;;;;;;;;;;;;;;;6.32;100.00;98391.53;4936326;29;19922;-85
2024/03/01 17:45:14;;;;;;;;;;;;;;;6.34;100.00;98389.69;4934181;29;19925;-90
2024/03/01 17:47:40;;;;;;;;;;;;;;;6.35;100.00;98393.16;4937842;29;19926;-89
2024/03/01 17:50:07;;;;;;;;;;;;;;;6.34;100.00;98387.03;4937448;29;20287;-93
2024/03/01 17:52:32;;;;;;;;;;;;;;;6.32;100.00;98390.69;4940981;29;19926;-88
2024/03/01 17:55:00;;;;;;;;;;;;;;;6.33;100.00;98389.75;4938790;29;19918;-93
2024/03/01 17:57:26;;;;;;;;;;;;;;;6.31;100.00;98387.19;4936117;29;19922;-84
2024/03/01 17:59:51;;;;;;;;;;;;;;;6.30;100.00;98395.16;4935047;29;19922;-82
2024/03/01 18:02:16;;;;;;;;;;;;;;;6.30;100.00;98393.41;4936005;29;19973;-81
2024/03/01 18:04:47;;;;;;;;;;;;;;;6.29;100.00;98394.31;4935859;29;19919;-90
2024/03/01 18:07:13;;;;;;;;;;;;;;;6.30;100.00;98385.50;4936192;29;19923;-83
2024/03/01 18:09:38;;;;;;;;;;;;;;;6.31;100.00;98386.34;4937255;29;19966;-92
2024/03/01 18:12:03;;;;;;;;;;;;;;;6.31;100.00;98392.44;4938079;29;19974;-83
2024/03/01 18:14:29;;;;;;;;;;;;;;;6.31;100.00;98392.44;4936275;29;20385;-82
2024/03/01 18:16:54;;;;;;;;;;;;;;;6.28;100.00;98387.34;4935720;29;20005;-95
2024/03/01 18:19:19;;;;;;;;;;;;;;;6.29;100.00;98391.69;4906114;29;19919;-85
2024/03/01 18:21:45;;;;;;;;;;;;;;;6.29;100.00;98393.47;4907129;29;19927;-88
2024/03/01 18:24:15;;;;;;;;;;;;;;;6.28;100.00;98386.50;4905250;29;19927;-85
2024/03/01 18:26:41;;;;;;;;;;;;;;;6.28;100.00;98382.06;4905131;29;19923;-86
2024/03/01 18:29:07;;;;;;;;;;;;;;;6.26;100.00;98383.09;4906908;29;20009;-86
2024/03/01 18:31:32;;;;;;;;;;;;;;;6.26;100.00;98377.84;4905248;29;19979;-84
2024/03/01 18:33:58;;;;;;;;;;;;;;;6.22;100.00;98384.16;4911873;29;19923;-88
2024/03/01 18:36:23;;;;;;;;;;;;;;;6.20;100.00;98384.22;4906459;29;20059;-88
2024/03/01 18:38:48;;;;;;;;;;;;;;;6.23;100.00;98385.88;4907460;29;19923;-85
2024/03/01 18:41:14;;;;;;;;;;;;;;;6.23;100.00;98384.06;4905479;29;20348;-85
2024/03/01 18:43:40;;;;;;;;;;;;;;;6.25;100.00;98386.63;4902734;29;20381;-86
2024/03/01 18:46:05;;;;;;;;;;;;;;;6.24;100.00;98385.78;4906573;29;19969;-95
2024/03/01 18:48:34;;;;;;;;;;;;;;;6.27;100.00;98376.88;4909493;29;19919;-88
2024/03/01 18:51:00;;;;;;;;;;;;;;;6.22;100.00;98385.00;4929817;29;20294;-88
2024/03/01 18:53:25;;;;;;;;;;;;;;;6.21;100.00;98380.69;4936500;29;19926;-90
2024/03/01 18:55:50;;;;;;;;;;;;;;;6.20;100.00;98381.59;4937421;29;20019;-90
2024/03/01 18:58:16;;;;;;;;;;;;;;;6.22;100.00;98381.53;4937365;29;20011;-88
2024/03/01 19:00:43;;;;;;;;;;;;;;;6.20;100.00;98378.13;4934715;29;20350;-86
2024/03/01 19:03:09;;;;;;;;;;;;;;;6.23;100.00;98367.44;4934787;29;19926;-87
2024/03/01 19:05:34;;;;;;;;;;;;;;;6.22;100.00;98374.47;4933686;29;19915;-89
2024/03/01 19:08:00;;;;;;;;;;;;;;;6.22;100.00;98377.09;4935212;29;19922;-87
2024/03/01 19:10:25;;;;;;;;;;;;;;;6.20;100.00;98376.31;4934901;29;19919;-84
2024/03/01 19:12:50;;;;;;;;;;;;;;;6.21;100.00;98369.28;4949462;29;20022;-87
2024/03/01 19:15:16;;;;;;;;;;;;;;;6.22;100.00;98371.00;4933324;29;19932;-91
2024/03/01 19:17:41;;;;;;;;;;;;;;;7.48;100.00;98369.09;4933358;29;19922;-87
2024/03/01 19:20:07;;;;;;;;;;;;;;;7.22;100.00;98374.81;4933052;29;19918;-87
2024/03/01 19:22:33;;;;;;;;;;;;;;;7.00;100.00;98374.19;4934497;29;20449;-83
2024/03/01 19:24:59;;;;;;;;;;;;;;;6.91;100.00;98381.63;4934331;29;19919;-90
2024/03/01 19:27:24;;;;;;;;;;;;;;;6.90;100.00;98379.94;4934267;29;19919;-85
2024/03/01 19:29:52;;;;;;;;;;;;;;;6.90;100.00;98379.94;4934716;29;19935;-82
2024/03/01 19:32:18;;;;;;;;;;;;;;;6.92;100.00;98371.94;4934498;29;19915;-89